sensor_id;sensor_type;location;lat;lon;timestamp;temperature;humidity
14771;DHT22;7477;45.222;5.688;2023-02-10T00:00:09;1.50;99.90
14771;DHT22;7477;45.222;5.688;2023-02-10T00:03:28;1.40;99.90
14771;DHT22;7477;45.222;5.688;2023-02-10T00:06:47;1.30;99.90
14771;DHT22;7477;45.222;5.688;2023-02-10T00:10:07;1.30;99.90
14771;DHT22;7477;45.222;5.688;2023-02-10T00:13:27;1.30;99.90
14771;DHT22;7477;45.222;5.688;2023-02-10T00:16:49;1.30;99.90
14771;DHT22;7477;45.222;5.688;2023-02-10T00:20:10;1.30;99.90
14771;DHT22;7477;45.222;5.688;2023-02-10T00:23:29;1.30;99.90
14771;DHT22;7477;45.222;5.688;2023-02-10T00:26:49;1.20;99.90
14771;DHT22;7477;45.222;5.688;2023-02-10T00:30:09;1.30;99.90
14771;DHT22;7477;45.222;5.688;2023-02-10T00:33:29;1.20;99.90
14771;DHT22;7477;45.222;5.688;2023-02-10T00:36:51;1.20;99.90
14771;DHT22;7477;45.222;5.688;2023-02-10T00:40:11;1.10;99.90
14771;DHT22;7477;45.222;5.688;2023-02-10T00:43:30;1.10;99.90
14771;DHT22;7477;45.222;5.688;2023-02-10T00:46:49;1.10;99.90
14771;DHT22;7477;45.222;5.688;2023-02-10T00:50:08;1.10;99.90
14771;DHT22;7477;45.222;5.688;2023-02-10T00:53:28;1.10;99.90
14771;DHT22;7477;45.222;5.688;2023-02-10T00:56:48;1.10;99.90
14771;DHT22;7477;45.222;5.688;2023-02-10T01:00:08;1.10;99.90
14771;DHT22;7477;45.222;5.688;2023-02-10T01:03:27;1.00;99.90
14771;DHT22;7477;45.222;5.688;2023-02-10T01:06:46;1.00;99.90
14771;DHT22;7477;45.222;5.688;2023-02-10T01:10:05;1.00;99.90
14771;DHT22;7477;45.222;5.688;2023-02-10T01:13:25;0.90;99.90
14771;DHT22;7477;45.222;5.688;2023-02-10T01:16:45;0.90;99.90
14771;DHT22;7477;45.222;5.688;2023-02-10T01:20:05;0.90;99.90
14771;DHT22;7477;45.222;5.688;2023-02-10T01:23:24;0.80;99.90
14771;DHT22;7477;45.222;5.688;2023-02-10T01:26:43;0.80;99.90
14771;DHT22;7477;45.222;5.688;2023-02-10T01:30:03;0.80;99.90
14771;DHT22;7477;45.222;5.688;2023-02-10T01:33:23;0.80;99.90
14771;DHT22;7477;45.222;5.688;2023-02-10T01:36:42;0.90;99.90
14771;DHT22;7477;45.222;5.688;2023-02-10T01:40:02;0.90;99.90
14771;DHT22;7477;45.222;5.688;2023-02-10T01:43:21;0.80;99.90
14771;DHT22;7477;45.222;5.688;2023-02-10T01:46:41;0.80;99.90
14771;DHT22;7477;45.222;5.688;2023-02-10T01:50:00;0.70;99.90
14771;DHT22;7477;45.222;5.688;2023-02-10T01:53:20;0.60;99.90
14771;DHT22;7477;45.222;5.688;2023-02-10T01:56:41;0.50;99.90
14771;DHT22;7477;45.222;5.688;2023-02-10T02:00:02;0.60;99.90
14771;DHT22;7477;45.222;5.688;2023-02-10T02:03:22;0.50;99.90
14771;DHT22;7477;45.222;5.688;2023-02-10T02:06:41;0.50;99.90
14771;DHT22;7477;45.222;5.688;2023-02-10T02:10:03;0.50;99.90
14771;DHT22;7477;45.222;5.688;2023-02-10T02:32:39;0.40;99.90
14771;DHT22;7477;45.222;5.688;2023-02-10T02:36:13;0.40;99.90
14771;DHT22;7477;45.222;5.688;2023-02-10T02:39:34;0.40;99.90
14771;DHT22;7477;45.222;5.688;2023-02-10T02:42:53;0.40;99.90
14771;DHT22;7477;45.222;5.688;2023-02-10T02:46:36;0.40;99.90
14771;DHT22;7477;45.222;5.688;2023-02-10T02:57:27;0.40;99.90
14771;DHT22;7477;45.222;5.688;2023-02-10T03:00:50;0.30;99.90
14771;DHT22;7477;45.222;5.688;2023-02-10T03:04:13;0.30;99.90
14771;DHT22;7477;45.222;5.688;2023-02-10T03:07:34;0.40;99.90
14771;DHT22;7477;45.222;5.688;2023-02-10T03:10:53;0.40;99.90
14771;DHT22;7477;45.222;5.688;2023-02-10T03:14:13;0.30;99.90
14771;DHT22;7477;45.222;5.688;2023-02-10T03:17:32;0.20;99.90
14771;DHT22;7477;45.222;5.688;2023-02-10T03:20:51;0.20;99.90
14771;DHT22;7477;45.222;5.688;2023-02-10T03:24:11;0.10;99.90
14771;DHT22;7477;45.222;5.688;2023-02-10T03:27:30;0.10;99.90
14771;DHT22;7477;45.222;5.688;2023-02-10T03:30:50;0.00;99.90
14771;DHT22;7477;45.222;5.688;2023-02-10T03:34:09;0.10;99.90
14771;DHT22;7477;45.222;5.688;2023-02-10T03:37:29;0.20;99.90
14771;DHT22;7477;45.222;5.688;2023-02-10T03:40:49;0.10;99.90
14771;DHT22;7477;45.222;5.688;2023-02-10T03:44:10;0.00;99.90
14771;DHT22;7477;45.222;5.688;2023-02-10T03:47:29;0.10;99.90
14771;DHT22;7477;45.222;5.688;2023-02-10T03:50:48;-0.10;99.90
14771;DHT22;7477;45.222;5.688;2023-02-10T03:54:08;0.00;99.90
14771;DHT22;7477;45.222;5.688;2023-02-10T03:57:27;-0.20;99.90
14771;DHT22;7477;45.222;5.688;2023-02-10T04:00:46;-0.10;99.90
14771;DHT22;7477;45.222;5.688;2023-02-10T04:04:06;-0.10;99.90
14771;DHT22;7477;45.222;5.688;2023-02-10T04:07:25;-0.10;99.90
14771;DHT22;7477;45.222;5.688;2023-02-10T04:10:44;-0.10;99.90
14771;DHT22;7477;45.222;5.688;2023-02-10T04:14:04;-0.10;99.90
14771;DHT22;7477;45.222;5.688;2023-02-10T04:17:23;-0.10;99.90
14771;DHT22;7477;45.222;5.688;2023-02-10T04:20:42;-0.20;99.90
14771;DHT22;7477;45.222;5.688;2023-02-10T04:24:01;-0.30;99.90
14771;DHT22;7477;45.222;5.688;2023-02-10T04:27:20;-0.20;99.90
14771;DHT22;7477;45.222;5.688;2023-02-10T04:30:40;-0.20;99.90
14771;DHT22;7477;45.222;5.688;2023-02-10T04:33:59;-0.20;99.90
14771;DHT22;7477;45.222;5.688;2023-02-10T04:37:19;-0.30;99.90
14771;DHT22;7477;45.222;5.688;2023-02-10T04:40:38;-0.40;99.90
14771;DHT22;7477;45.222;5.688;2023-02-10T04:43:58;-0.30;99.90
14771;DHT22;7477;45.222;5.688;2023-02-10T04:47:17;-0.40;99.90
14771;DHT22;7477;45.222;5.688;2023-02-10T04:50:37;-0.40;99.90
14771;DHT22;7477;45.222;5.688;2023-02-10T04:53:57;-0.50;99.90
14771;DHT22;7477;45.222;5.688;2023-02-10T04:57:16;-0.50;99.90
14771;DHT22;7477;45.222;5.688;2023-02-10T05:00:35;-0.50;99.90
14771;DHT22;7477;45.222;5.688;2023-02-10T05:03:54;-0.50;99.90
14771;DHT22;7477;45.222;5.688;2023-02-10T05:07:13;-0.50;99.90
14771;DHT22;7477;45.222;5.688;2023-02-10T05:10:32;-0.50;99.90
14771;DHT22;7477;45.222;5.688;2023-02-10T05:13:52;-0.50;99.90
14771;DHT22;7477;45.222;5.688;2023-02-10T05:17:11;-0.50;99.90
14771;DHT22;7477;45.222;5.688;2023-02-10T05:20:31;-0.50;99.90
14771;DHT22;7477;45.222;5.688;2023-02-10T05:23:50;-0.50;99.90
14771;DHT22;7477;45.222;5.688;2023-02-10T05:27:09;-0.60;99.90
14771;DHT22;7477;45.222;5.688;2023-02-10T05:30:28;-0.60;99.90
14771;DHT22;7477;45.222;5.688;2023-02-10T05:33:47;-0.60;99.90
14771;DHT22;7477;45.222;5.688;2023-02-10T05:37:06;-0.70;99.90
14771;DHT22;7477;45.222;5.688;2023-02-10T05:40:26;-0.70;99.90
14771;DHT22;7477;45.222;5.688;2023-02-10T05:43:45;-0.70;99.90
14771;DHT22;7477;45.222;5.688;2023-02-10T05:47:04;-0.70;99.90
14771;DHT22;7477;45.222;5.688;2023-02-10T05:50:23;-0.70;99.90
14771;DHT22;7477;45.222;5.688;2023-02-10T05:53:43;-0.80;99.90
14771;DHT22;7477;45.222;5.688;2023-02-10T05:57:02;-0.80;99.90
14771;DHT22;7477;45.222;5.688;2023-02-10T06:00:21;-0.80;99.90
14771;DHT22;7477;45.222;5.688;2023-02-10T06:03:40;-0.70;99.90
14771;DHT22;7477;45.222;5.688;2023-02-10T06:07:00;-0.80;99.90
14771;DHT22;7477;45.222;5.688;2023-02-10T06:10:19;-0.90;99.90
14771;DHT22;7477;45.222;5.688;2023-02-10T06:13:38;-0.90;99.90
14771;DHT22;7477;45.222;5.688;2023-02-10T06:16:57;-0.80;99.90
14771;DHT22;7477;45.222;5.688;2023-02-10T06:20:17;-0.80;99.90
14771;DHT22;7477;45.222;5.688;2023-02-10T06:23:39;-0.80;99.90
14771;DHT22;7477;45.222;5.688;2023-02-10T06:26:59;-0.70;99.90
14771;DHT22;7477;45.222;5.688;2023-02-10T06:30:18;-0.40;99.90
14771;DHT22;7477;45.222;5.688;2023-02-10T06:33:38;-0.50;99.90
14771;DHT22;7477;45.222;5.688;2023-02-10T06:36:57;-0.50;99.90
14771;DHT22;7477;45.222;5.688;2023-02-10T06:40:17;-0.50;99.90
14771;DHT22;7477;45.222;5.688;2023-02-10T06:43:36;-0.50;99.90
14771;DHT22;7477;45.222;5.688;2023-02-10T06:46:55;-0.40;99.90
14771;DHT22;7477;45.222;5.688;2023-02-10T06:50:14;-0.40;99.90
14771;DHT22;7477;45.222;5.688;2023-02-10T06:53:36;-0.40;99.90
14771;DHT22;7477;45.222;5.688;2023-02-10T06:56:55;-0.40;99.90
14771;DHT22;7477;45.222;5.688;2023-02-10T07:00:14;-0.40;99.90
14771;DHT22;7477;45.222;5.688;2023-02-10T07:03:34;-0.40;99.90
14771;DHT22;7477;45.222;5.688;2023-02-10T07:06:54;-0.40;99.90
14771;DHT22;7477;45.222;5.688;2023-02-10T07:10:14;-0.30;99.90
14771;DHT22;7477;45.222;5.688;2023-02-10T07:13:33;-0.40;99.90
14771;DHT22;7477;45.222;5.688;2023-02-10T07:16:52;-0.40;99.90
14771;DHT22;7477;45.222;5.688;2023-02-10T07:20:11;-0.40;99.90
14771;DHT22;7477;45.222;5.688;2023-02-10T07:23:31;-0.30;99.90
14771;DHT22;7477;45.222;5.688;2023-02-10T07:26:50;-0.30;99.90
14771;DHT22;7477;45.222;5.688;2023-02-10T07:30:10;-0.30;99.90
14771;DHT22;7477;45.222;5.688;2023-02-10T07:33:30;-0.20;99.90
14771;DHT22;7477;45.222;5.688;2023-02-10T07:36:50;-0.20;99.90
14771;DHT22;7477;45.222;5.688;2023-02-10T07:40:12;-0.20;99.90
14771;DHT22;7477;45.222;5.688;2023-02-10T07:43:32;-0.20;99.90
14771;DHT22;7477;45.222;5.688;2023-02-10T07:46:52;2.10;99.90
14771;DHT22;7477;45.222;5.688;2023-02-10T07:50:12;1.50;99.90
14771;DHT22;7477;45.222;5.688;2023-02-10T07:53:31;2.40;99.90
14771;DHT22;7477;45.222;5.688;2023-02-10T07:56:50;5.50;99.90
14771;DHT22;7477;45.222;5.688;2023-02-10T08:00:10;7.20;99.90
14771;DHT22;7477;45.222;5.688;2023-02-10T08:03:31;5.80;97.30
14771;DHT22;7477;45.222;5.688;2023-02-10T08:06:50;2.40;99.90
14771;DHT22;7477;45.222;5.688;2023-02-10T08:10:10;1.20;99.90
14771;DHT22;7477;45.222;5.688;2023-02-10T08:13:29;0.80;99.90
14771;DHT22;7477;45.222;5.688;2023-02-10T08:16:49;0.60;99.90
14771;DHT22;7477;45.222;5.688;2023-02-10T08:20:08;0.50;99.90
14771;DHT22;7477;45.222;5.688;2023-02-10T08:23:27;0.50;99.90
14771;DHT22;7477;45.222;5.688;2023-02-10T08:26:47;0.50;99.90
14771;DHT22;7477;45.222;5.688;2023-02-10T08:30:06;0.50;99.90
14771;DHT22;7477;45.222;5.688;2023-02-10T08:33:26;0.50;99.90
14771;DHT22;7477;45.222;5.688;2023-02-10T08:36:46;0.60;99.90
14771;DHT22;7477;45.222;5.688;2023-02-10T08:40:05;0.60;99.90
14771;DHT22;7477;45.222;5.688;2023-02-10T08:43:25;0.60;99.90
14771;DHT22;7477;45.222;5.688;2023-02-10T08:46:44;0.70;99.90
14771;DHT22;7477;45.222;5.688;2023-02-10T08:50:04;0.80;99.90
14771;DHT22;7477;45.222;5.688;2023-02-10T08:53:23;0.80;99.90
14771;DHT22;7477;45.222;5.688;2023-02-10T08:56:42;0.80;99.90
14771;DHT22;7477;45.222;5.688;2023-02-10T09:00:03;0.90;99.90
14771;DHT22;7477;45.222;5.688;2023-02-10T09:03:22;0.90;99.90
14771;DHT22;7477;45.222;5.688;2023-02-10T09:06:43;0.90;99.90
14771;DHT22;7477;45.222;5.688;2023-02-10T09:10:02;1.00;99.90
14771;DHT22;7477;45.222;5.688;2023-02-10T09:13:22;1.00;99.90
14771;DHT22;7477;45.222;5.688;2023-02-10T09:16:41;1.10;99.90
14771;DHT22;7477;45.222;5.688;2023-02-10T09:20:01;1.10;99.90
14771;DHT22;7477;45.222;5.688;2023-02-10T09:23:20;1.20;99.90
14771;DHT22;7477;45.222;5.688;2023-02-10T09:26:39;1.30;99.90
14771;DHT22;7477;45.222;5.688;2023-02-10T09:29:58;1.30;99.90
14771;DHT22;7477;45.222;5.688;2023-02-10T09:33:18;1.40;99.90
14771;DHT22;7477;45.222;5.688;2023-02-10T09:36:38;1.40;99.90
14771;DHT22;7477;45.222;5.688;2023-02-10T09:39:57;1.50;99.90
14771;DHT22;7477;45.222;5.688;2023-02-10T09:54:22;1.90;99.90
14771;DHT22;7477;45.222;5.688;2023-02-10T09:57:44;3.30;99.90
14771;DHT22;7477;45.222;5.688;2023-02-10T10:01:35;3.80;99.90
14771;DHT22;7477;45.222;5.688;2023-02-10T10:04:58;2.40;99.90
14771;DHT22;7477;45.222;5.688;2023-02-10T10:12:13;2.40;99.90
14771;DHT22;7477;45.222;5.688;2023-02-10T10:15:43;2.20;99.90
14771;DHT22;7477;45.222;5.688;2023-02-10T10:30:17;2.40;99.90
14771;DHT22;7477;45.222;5.688;2023-02-10T10:33:50;2.40;99.90
14771;DHT22;7477;45.222;5.688;2023-02-10T10:37:16;2.50;99.90
14771;DHT22;7477;45.222;5.688;2023-02-10T10:40:37;2.50;99.70
14771;DHT22;7477;45.222;5.688;2023-02-10T10:43:57;2.50;99.20
14771;DHT22;7477;45.222;5.688;2023-02-10T10:47:21;2.60;98.80
14771;DHT22;7477;45.222;5.688;2023-02-10T10:50:44;2.70;99.30
14771;DHT22;7477;45.222;5.688;2023-02-10T10:54:06;2.70;98.90
14771;DHT22;7477;45.222;5.688;2023-02-10T10:57:28;2.80;98.40
14771;DHT22;7477;45.222;5.688;2023-02-10T11:00:56;2.90;98.10
14771;DHT22;7477;45.222;5.688;2023-02-10T11:04:22;2.90;97.60
14771;DHT22;7477;45.222;5.688;2023-02-10T11:07:42;2.80;96.90
14771;DHT22;7477;45.222;5.688;2023-02-10T11:11:07;2.90;97.00
14771;DHT22;7477;45.222;5.688;2023-02-10T11:14:36;3.00;97.00
14771;DHT22;7477;45.222;5.688;2023-02-10T11:17:56;3.10;96.50
14771;DHT22;7477;45.222;5.688;2023-02-10T11:21:16;3.10;96.20
14771;DHT22;7477;45.222;5.688;2023-02-10T11:24:35;3.20;96.00
14771;DHT22;7477;45.222;5.688;2023-02-10T11:27:56;3.20;95.80
14771;DHT22;7477;45.222;5.688;2023-02-10T11:31:28;3.30;96.00
14771;DHT22;7477;45.222;5.688;2023-02-10T11:34:50;3.40;96.30
14771;DHT22;7477;45.222;5.688;2023-02-10T11:38:20;3.40;95.70
14771;DHT22;7477;45.222;5.688;2023-02-10T11:41:40;3.40;95.70
14771;DHT22;7477;45.222;5.688;2023-02-10T11:48:28;3.60;95.80
14771;DHT22;7477;45.222;5.688;2023-02-10T11:51:55;3.60;95.40
14771;DHT22;7477;45.222;5.688;2023-02-10T11:55:15;3.60;95.20
14771;DHT22;7477;45.222;5.688;2023-02-10T11:58:59;3.70;95.40
14771;DHT22;7477;45.222;5.688;2023-02-10T12:09:41;3.90;94.80
14771;DHT22;7477;45.222;5.688;2023-02-10T12:31:28;4.30;94.20
14771;DHT22;7477;45.222;5.688;2023-02-10T12:35:10;4.50;93.60
14771;DHT22;7477;45.222;5.688;2023-02-10T12:53:00;4.70;93.30
14771;DHT22;7477;45.222;5.688;2023-02-10T12:56:26;4.80;93.10
14771;DHT22;7477;45.222;5.688;2023-02-10T13:00:12;4.90;93.30
14771;DHT22;7477;45.222;5.688;2023-02-10T13:03:36;4.90;93.50
14771;DHT22;7477;45.222;5.688;2023-02-10T13:10:35;5.00;93.30
14771;DHT22;7477;45.222;5.688;2023-02-10T13:13:57;5.10;92.50
14771;DHT22;7477;45.222;5.688;2023-02-10T13:17:19;5.10;92.40
14771;DHT22;7477;45.222;5.688;2023-02-10T13:24:17;5.10;91.80
14771;DHT22;7477;45.222;5.688;2023-02-10T13:31:27;5.30;91.70
14771;DHT22;7477;45.222;5.688;2023-02-10T13:34:56;5.50;91.70
14771;DHT22;7477;45.222;5.688;2023-02-10T13:38:21;5.50;92.00
14771;DHT22;7477;45.222;5.688;2023-02-10T13:41:44;5.50;92.10
14771;DHT22;7477;45.222;5.688;2023-02-10T13:48:30;5.70;92.00
14771;DHT22;7477;45.222;5.688;2023-02-10T13:51:58;5.70;92.60
14771;DHT22;7477;45.222;5.688;2023-02-10T13:59:04;5.90;93.20
14771;DHT22;7477;45.222;5.688;2023-02-10T14:02:26;6.00;93.00
14771;DHT22;7477;45.222;5.688;2023-02-10T14:06:12;6.00;93.30
14771;DHT22;7477;45.222;5.688;2023-02-10T14:09:34;6.00;93.10
14771;DHT22;7477;45.222;5.688;2023-02-10T14:12:59;6.10;93.10
14771;DHT22;7477;45.222;5.688;2023-02-10T14:23:01;6.10;92.70
14771;DHT22;7477;45.222;5.688;2023-02-10T14:26:31;6.20;92.80
14771;DHT22;7477;45.222;5.688;2023-02-10T14:29:55;6.20;92.30
14771;DHT22;7477;45.222;5.688;2023-02-10T14:33:29;6.20;92.50
14771;DHT22;7477;45.222;5.688;2023-02-10T14:37:15;6.30;92.70
14771;DHT22;7477;45.222;5.688;2023-02-10T14:40:32;6.40;92.50
14771;DHT22;7477;45.222;5.688;2023-02-10T14:43:52;6.40;92.60
14771;DHT22;7477;45.222;5.688;2023-02-10T14:47:33;6.40;92.50
14771;DHT22;7477;45.222;5.688;2023-02-10T14:51:03;6.60;92.60
14771;DHT22;7477;45.222;5.688;2023-02-10T14:54:26;6.70;92.50
14771;DHT22;7477;45.222;5.688;2023-02-10T14:57:45;6.80;92.30
14771;DHT22;7477;45.222;5.688;2023-02-10T15:01:15;6.80;92.20
14771;DHT22;7477;45.222;5.688;2023-02-10T15:04:36;6.90;92.50
14771;DHT22;7477;45.222;5.688;2023-02-10T15:07:56;6.80;91.90
14771;DHT22;7477;45.222;5.688;2023-02-10T15:11:21;6.80;91.90
14771;DHT22;7477;45.222;5.688;2023-02-10T15:18:34;6.90;91.90
14771;DHT22;7477;45.222;5.688;2023-02-10T15:21:56;6.90;91.90
14771;DHT22;7477;45.222;5.688;2023-02-10T15:29:17;6.90;91.80
14771;DHT22;7477;45.222;5.688;2023-02-10T15:32:37;6.90;91.90
14771;DHT22;7477;45.222;5.688;2023-02-10T15:39:31;6.90;92.00
14771;DHT22;7477;45.222;5.688;2023-02-10T15:43:03;6.90;92.10
14771;DHT22;7477;45.222;5.688;2023-02-10T15:46:24;6.90;92.20
14771;DHT22;7477;45.222;5.688;2023-02-10T15:49:51;6.90;92.30
14771;DHT22;7477;45.222;5.688;2023-02-10T15:53:13;6.80;92.30
14771;DHT22;7477;45.222;5.688;2023-02-10T15:56:35;6.70;92.30
14771;DHT22;7477;45.222;5.688;2023-02-10T15:59:54;6.50;92.60
14771;DHT22;7477;45.222;5.688;2023-02-10T16:03:13;6.40;92.90
14771;DHT22;7477;45.222;5.688;2023-02-10T16:06:37;6.30;93.20
14771;DHT22;7477;45.222;5.688;2023-02-10T16:09:56;6.20;93.60
14771;DHT22;7477;45.222;5.688;2023-02-10T16:13:16;6.10;93.70
14771;DHT22;7477;45.222;5.688;2023-02-10T16:16:42;6.00;94.00
14771;DHT22;7477;45.222;5.688;2023-02-10T16:20:03;6.00;94.10
14771;DHT22;7477;45.222;5.688;2023-02-10T16:23:22;5.90;94.30
14771;DHT22;7477;45.222;5.688;2023-02-10T16:26:42;5.90;94.50
14771;DHT22;7477;45.222;5.688;2023-02-10T16:30:04;5.80;94.60
14771;DHT22;7477;45.222;5.688;2023-02-10T16:33:23;5.80;94.90
14771;DHT22;7477;45.222;5.688;2023-02-10T16:36:42;5.70;95.20
14771;DHT22;7477;45.222;5.688;2023-02-10T16:40:04;5.70;95.30
14771;DHT22;7477;45.222;5.688;2023-02-10T16:43:23;5.60;95.40
14771;DHT22;7477;45.222;5.688;2023-02-10T16:46:43;5.60;95.50
14771;DHT22;7477;45.222;5.688;2023-02-10T16:50:04;5.60;95.60
14771;DHT22;7477;45.222;5.688;2023-02-10T16:53:23;5.50;95.70
14771;DHT22;7477;45.222;5.688;2023-02-10T16:56:43;5.50;95.80
14771;DHT22;7477;45.222;5.688;2023-02-10T17:00:04;5.40;95.90
14771;DHT22;7477;45.222;5.688;2023-02-10T17:03:23;5.40;95.90
14771;DHT22;7477;45.222;5.688;2023-02-10T17:06:44;5.40;96.00
14771;DHT22;7477;45.222;5.688;2023-02-10T17:10:06;5.40;96.10
14771;DHT22;7477;45.222;5.688;2023-02-10T17:13:26;5.40;96.10
14771;DHT22;7477;45.222;5.688;2023-02-10T17:16:47;5.30;96.20
14771;DHT22;7477;45.222;5.688;2023-02-10T17:20:14;5.10;96.40
14771;DHT22;7477;45.222;5.688;2023-02-10T17:23:34;5.00;96.60
14771;DHT22;7477;45.222;5.688;2023-02-10T17:26:53;4.90;96.80
14771;DHT22;7477;45.222;5.688;2023-02-10T17:30:15;4.90;96.90
14771;DHT22;7477;45.222;5.688;2023-02-10T17:33:35;4.80;97.10
14771;DHT22;7477;45.222;5.688;2023-02-10T17:36:54;4.70;97.10
14771;DHT22;7477;45.222;5.688;2023-02-10T17:40:16;4.60;97.30
14771;DHT22;7477;45.222;5.688;2023-02-10T17:43:47;4.50;97.30
14771;DHT22;7477;45.222;5.688;2023-02-10T17:47:08;4.40;97.40
14771;DHT22;7477;45.222;5.688;2023-02-10T17:50:27;4.30;97.50
14771;DHT22;7477;45.222;5.688;2023-02-10T17:53:48;4.20;97.50
14771;DHT22;7477;45.222;5.688;2023-02-10T17:57:07;4.20;97.60
14771;DHT22;7477;45.222;5.688;2023-02-10T18:00:34;4.10;97.70
14771;DHT22;7477;45.222;5.688;2023-02-10T18:03:54;4.10;98.00
14771;DHT22;7477;45.222;5.688;2023-02-10T18:07:17;4.10;97.90
14771;DHT22;7477;45.222;5.688;2023-02-10T18:10:38;4.10;98.00
14771;DHT22;7477;45.222;5.688;2023-02-10T18:13:58;4.00;97.80
14771;DHT22;7477;45.222;5.688;2023-02-10T18:17:18;3.90;97.60
14771;DHT22;7477;45.222;5.688;2023-02-10T18:20:37;3.90;97.60
14771;DHT22;7477;45.222;5.688;2023-02-10T18:23:59;3.80;97.70
14771;DHT22;7477;45.222;5.688;2023-02-10T18:27:20;3.90;97.50
14771;DHT22;7477;45.222;5.688;2023-02-10T18:30:45;3.80;97.40
14771;DHT22;7477;45.222;5.688;2023-02-10T18:34:05;3.70;97.40
14771;DHT22;7477;45.222;5.688;2023-02-10T18:37:24;3.70;97.40
14771;DHT22;7477;45.222;5.688;2023-02-10T18:40:43;3.50;97.70
14771;DHT22;7477;45.222;5.688;2023-02-10T18:44:03;3.50;98.00
14771;DHT22;7477;45.222;5.688;2023-02-10T18:47:22;3.50;98.20
14771;DHT22;7477;45.222;5.688;2023-02-10T18:50:46;3.40;98.10
14771;DHT22;7477;45.222;5.688;2023-02-10T18:54:06;3.40;98.50
14771;DHT22;7477;45.222;5.688;2023-02-10T18:57:25;3.30;98.90
14771;DHT22;7477;45.222;5.688;2023-02-10T19:00:47;3.30;99.20
14771;DHT22;7477;45.222;5.688;2023-02-10T19:04:06;3.30;99.20
14771;DHT22;7477;45.222;5.688;2023-02-10T19:07:26;3.30;99.40
14771;DHT22;7477;45.222;5.688;2023-02-10T19:10:45;3.10;99.50
14771;DHT22;7477;45.222;5.688;2023-02-10T19:14:04;3.00;99.60
14771;DHT22;7477;45.222;5.688;2023-02-10T19:17:24;3.00;99.70
14771;DHT22;7477;45.222;5.688;2023-02-10T19:20:43;2.90;99.80
14771;DHT22;7477;45.222;5.688;2023-02-10T19:24:03;2.90;99.80
14771;DHT22;7477;45.222;5.688;2023-02-10T19:27:22;2.80;99.90
14771;DHT22;7477;45.222;5.688;2023-02-10T19:30:41;2.80;99.90
14771;DHT22;7477;45.222;5.688;2023-02-10T19:34:01;2.80;99.90
14771;DHT22;7477;45.222;5.688;2023-02-10T19:37:21;2.80;99.90
14771;DHT22;7477;45.222;5.688;2023-02-10T19:40:41;2.80;99.90
14771;DHT22;7477;45.222;5.688;2023-02-10T19:44:00;2.60;99.90
14771;DHT22;7477;45.222;5.688;2023-02-10T19:47:19;2.60;99.90
14771;DHT22;7477;45.222;5.688;2023-02-10T19:50:38;2.50;99.90
14771;DHT22;7477;45.222;5.688;2023-02-10T19:53:58;2.50;99.90
14771;DHT22;7477;45.222;5.688;2023-02-10T19:57:18;2.50;99.90
14771;DHT22;7477;45.222;5.688;2023-02-10T20:00:37;2.60;99.90
14771;DHT22;7477;45.222;5.688;2023-02-10T20:03:57;2.60;99.90
14771;DHT22;7477;45.222;5.688;2023-02-10T20:07:17;2.50;99.90
14771;DHT22;7477;45.222;5.688;2023-02-10T20:10:37;2.50;99.90
14771;DHT22;7477;45.222;5.688;2023-02-10T20:13:56;2.50;99.90
14771;DHT22;7477;45.222;5.688;2023-02-10T20:17:16;2.50;99.90
14771;DHT22;7477;45.222;5.688;2023-02-10T20:20:35;2.70;99.90
14771;DHT22;7477;45.222;5.688;2023-02-10T20:23:55;2.70;99.90
14771;DHT22;7477;45.222;5.688;2023-02-10T20:27:14;2.70;99.90
14771;DHT22;7477;45.222;5.688;2023-02-10T20:30:33;2.80;99.90
14771;DHT22;7477;45.222;5.688;2023-02-10T20:33:52;2.70;99.90
14771;DHT22;7477;45.222;5.688;2023-02-10T20:37:11;2.60;99.90
14771;DHT22;7477;45.222;5.688;2023-02-10T20:40:30;2.60;99.90
14771;DHT22;7477;45.222;5.688;2023-02-10T20:43:50;2.50;99.90
14771;DHT22;7477;45.222;5.688;2023-02-10T20:47:09;2.50;99.90
14771;DHT22;7477;45.222;5.688;2023-02-10T20:50:28;2.50;99.90
14771;DHT22;7477;45.222;5.688;2023-02-10T20:53:47;2.40;99.90
14771;DHT22;7477;45.222;5.688;2023-02-10T20:57:09;2.30;99.90
14771;DHT22;7477;45.222;5.688;2023-02-10T21:00:28;2.30;99.90
14771;DHT22;7477;45.222;5.688;2023-02-10T21:03:47;2.20;99.90
14771;DHT22;7477;45.222;5.688;2023-02-10T21:07:07;2.30;99.90
14771;DHT22;7477;45.222;5.688;2023-02-10T21:10:26;2.30;99.90
14771;DHT22;7477;45.222;5.688;2023-02-10T21:13:46;2.10;99.90
14771;DHT22;7477;45.222;5.688;2023-02-10T21:17:06;2.10;99.90
14771;DHT22;7477;45.222;5.688;2023-02-10T21:20:25;2.10;99.90
14771;DHT22;7477;45.222;5.688;2023-02-10T21:23:46;2.10;99.90
14771;DHT22;7477;45.222;5.688;2023-02-10T21:27:05;2.10;99.90
14771;DHT22;7477;45.222;5.688;2023-02-10T21:30:25;2.00;99.90
14771;DHT22;7477;45.222;5.688;2023-02-10T21:33:45;2.00;99.90
14771;DHT22;7477;45.222;5.688;2023-02-10T21:37:05;2.00;99.90
14771;DHT22;7477;45.222;5.688;2023-02-10T21:40:24;1.90;99.90
14771;DHT22;7477;45.222;5.688;2023-02-10T21:43:44;1.90;99.90
14771;DHT22;7477;45.222;5.688;2023-02-10T21:47:05;1.90;99.90
14771;DHT22;7477;45.222;5.688;2023-02-10T21:50:25;1.80;99.90
14771;DHT22;7477;45.222;5.688;2023-02-10T21:53:44;1.90;99.90
14771;DHT22;7477;45.222;5.688;2023-02-10T21:57:04;1.80;99.90
14771;DHT22;7477;45.222;5.688;2023-02-10T22:00:25;1.80;99.90
14771;DHT22;7477;45.222;5.688;2023-02-10T22:03:44;1.70;99.90
14771;DHT22;7477;45.222;5.688;2023-02-10T22:07:03;1.70;99.90
14771;DHT22;7477;45.222;5.688;2023-02-10T22:10:23;1.70;99.90
14771;DHT22;7477;45.222;5.688;2023-02-10T22:13:43;1.70;99.90
14771;DHT22;7477;45.222;5.688;2023-02-10T22:17:02;1.70;99.90
14771;DHT22;7477;45.222;5.688;2023-02-10T22:20:21;1.60;99.90
14771;DHT22;7477;45.222;5.688;2023-02-10T22:23:40;1.60;99.90
14771;DHT22;7477;45.222;5.688;2023-02-10T22:27:00;1.60;99.90
14771;DHT22;7477;45.222;5.688;2023-02-10T22:30:20;1.50;99.90
14771;DHT22;7477;45.222;5.688;2023-02-10T22:33:39;1.50;99.90
14771;DHT22;7477;45.222;5.688;2023-02-10T22:36:59;1.40;99.90
14771;DHT22;7477;45.222;5.688;2023-02-10T22:40:19;1.40;99.90
14771;DHT22;7477;45.222;5.688;2023-02-10T22:43:39;1.40;99.90
14771;DHT22;7477;45.222;5.688;2023-02-10T22:46:59;1.30;99.90
14771;DHT22;7477;45.222;5.688;2023-02-10T22:50:19;1.40;99.90
14771;DHT22;7477;45.222;5.688;2023-02-10T22:53:39;1.40;99.90
14771;DHT22;7477;45.222;5.688;2023-02-10T22:56:58;1.30;99.90
14771;DHT22;7477;45.222;5.688;2023-02-10T23:00:24;1.50;99.90
14771;DHT22;7477;45.222;5.688;2023-02-10T23:03:46;1.50;99.90
14771;DHT22;7477;45.222;5.688;2023-02-10T23:07:05;1.60;99.90
14771;DHT22;7477;45.222;5.688;2023-02-10T23:10:24;1.70;99.90
14771;DHT22;7477;45.222;5.688;2023-02-10T23:13:44;1.70;99.90
14771;DHT22;7477;45.222;5.688;2023-02-10T23:17:04;1.70;99.90
14771;DHT22;7477;45.222;5.688;2023-02-10T23:20:26;1.70;99.90
14771;DHT22;7477;45.222;5.688;2023-02-10T23:23:46;1.70;99.90
14771;DHT22;7477;45.222;5.688;2023-02-10T23:27:05;1.70;99.90
14771;DHT22;7477;45.222;5.688;2023-02-10T23:30:25;1.70;99.90
14771;DHT22;7477;45.222;5.688;2023-02-10T23:33:45;1.70;99.90
14771;DHT22;7477;45.222;5.688;2023-02-10T23:37:04;1.70;99.90
14771;DHT22;7477;45.222;5.688;2023-02-10T23:40:24;1.70;99.90
14771;DHT22;7477;45.222;5.688;2023-02-10T23:43:43;1.70;99.90
14771;DHT22;7477;45.222;5.688;2023-02-10T23:47:03;1.80;99.90
14771;DHT22;7477;45.222;5.688;2023-02-10T23:50:23;2.00;99.90
14771;DHT22;7477;45.222;5.688;2023-02-10T23:53:42;1.90;99.90
14771;DHT22;7477;45.222;5.688;2023-02-10T23:57:02;1.90;99.90
